sensor_id;sensor_type;location;lat;lon;timestamp;pressure;altitude;pressure_sealevel;temperature;humidity
69879;BME280;57161;43.136;24.706;2022-08-03T00:01:35;99095.28;;;21.49;58.00
69879;BME280;57161;43.136;24.706;2022-08-03T00:04:02;99092.44;;;21.49;58.19
69879;BME280;57161;43.136;24.706;2022-08-03T00:06:28;99085.75;;;21.56;58.16
69879;BME280;57161;43.136;24.706;2022-08-03T00:08:53;99088.44;;;21.66;57.92
69879;BME280;57161;43.136;24.706;2022-08-03T00:11:19;99071.38;;;21.66;57.57
69879;BME280;57161;43.136;24.706;2022-08-03T00:13:45;99079.19;;;21.79;57.26
69879;BME280;57161;43.136;24.706;2022-08-03T00:16:11;99095.47;;;21.90;57.24
69879;BME280;57161;43.136;24.706;2022-08-03T00:18:37;99100.13;;;21.97;56.63
69879;BME280;57161;43.136;24.706;2022-08-03T00:21:03;99083.13;;;21.85;56.67
69879;BME280;57161;43.136;24.706;2022-08-03T00:23:29;99088.25;;;22.01;56.45
69879;BME280;57161;43.136;24.706;2022-08-03T00:25:55;99088.34;;;22.03;56.34
69879;BME280;57161;43.136;24.706;2022-08-03T00:28:20;99098.44;;;22.17;56.11
69879;BME280;57161;43.136;24.706;2022-08-03T00:30:46;99094.63;;;22.27;55.79
69879;BME280;57161;43.136;24.706;2022-08-03T00:33:11;99094.31;;;22.21;56.21
69879;BME280;57161;43.136;24.706;2022-08-03T00:35:37;99080.50;;;22.15;56.17
69879;BME280;57161;43.136;24.706;2022-08-03T00:38:03;99091.56;;;22.23;56.56
69879;BME280;57161;43.136;24.706;2022-08-03T00:40:29;99085.22;;;22.10;56.59
69879;BME280;57161;43.136;24.706;2022-08-03T00:42:56;99068.38;;;21.89;57.07
69879;BME280;57161;43.136;24.706;2022-08-03T00:45:24;99096.41;;;21.95;57.25
69879;BME280;57161;43.136;24.706;2022-08-03T00:47:50;99100.53;;;21.92;57.21
69879;BME280;57161;43.136;24.706;2022-08-03T00:50:17;99079.19;;;21.79;57.63
69879;BME280;57161;43.136;24.706;2022-08-03T00:52:43;99088.88;;;21.74;58.27
69879;BME280;57161;43.136;24.706;2022-08-03T00:55:10;99067.13;;;21.41;58.67
69879;BME280;57161;43.136;24.706;2022-08-03T00:57:36;99080.84;;;21.45;58.90
69879;BME280;57161;43.136;24.706;2022-08-03T01:00:07;99076.69;;;21.22;59.34
69879;BME280;57161;43.136;24.706;2022-08-03T01:02:33;99082.38;;;21.34;59.42
69879;BME280;57161;43.136;24.706;2022-08-03T01:04:59;99063.38;;;21.13;59.79
69879;BME280;57161;43.136;24.706;2022-08-03T01:10:15;99073.66;;;21.07;60.24
69879;BME280;57161;43.136;24.706;2022-08-03T01:15:44;99092.28;;;21.10;59.91
69879;BME280;57161;43.136;24.706;2022-08-03T01:20:37;99092.69;;;20.92;60.25
69879;BME280;57161;43.136;24.706;2022-08-03T01:24:18;99104.91;;;20.95;60.26
69879;BME280;57161;43.136;24.706;2022-08-03T01:26:37;99108.38;;;20.93;60.34
69879;BME280;57161;43.136;24.706;2022-08-03T01:31:32;99107.50;;;21.03;60.05
69879;BME280;57161;43.136;24.706;2022-08-03T01:34:02;99094.28;;;20.95;60.08
69879;BME280;57161;43.136;24.706;2022-08-03T01:36:42;99088.97;;;21.02;60.11
69879;BME280;57161;43.136;24.706;2022-08-03T01:39:09;99091.94;;;21.04;60.06
69879;BME280;57161;43.136;24.706;2022-08-03T01:41:47;99102.03;;;21.07;60.25
69879;BME280;57161;43.136;24.706;2022-08-03T01:44:13;99087.09;;;21.06;60.41
69879;BME280;57161;43.136;24.706;2022-08-03T01:46:40;99095.00;;;21.08;59.81
69879;BME280;57161;43.136;24.706;2022-08-03T01:49:09;99084.28;;;21.06;59.66
69879;BME280;57161;43.136;24.706;2022-08-03T01:51:37;99095.50;;;21.16;58.78
69879;BME280;57161;43.136;24.706;2022-08-03T01:54:04;99082.50;;;21.13;58.82
69879;BME280;57161;43.136;24.706;2022-08-03T01:56:30;99082.78;;;21.17;58.70
69879;BME280;57161;43.136;24.706;2022-08-03T01:58:57;99087.56;;;21.14;59.15
69879;BME280;57161;43.136;24.706;2022-08-03T02:01:26;99093.25;;;21.14;59.10
69879;BME280;57161;43.136;24.706;2022-08-03T02:03:51;99110.28;;;21.14;59.38
69879;BME280;57161;43.136;24.706;2022-08-03T02:06:18;99094.66;;;21.02;59.77
69879;BME280;57161;43.136;24.706;2022-08-03T02:08:46;99086.88;;;20.90;60.26
69879;BME280;57161;43.136;24.706;2022-08-03T02:11:12;99096.28;;;20.81;60.67
69879;BME280;57161;43.136;24.706;2022-08-03T02:13:38;99094.81;;;20.68;60.73
69879;BME280;57161;43.136;24.706;2022-08-03T02:16:04;99102.84;;;20.72;61.34
69879;BME280;57161;43.136;24.706;2022-08-03T02:18:33;99101.97;;;20.58;61.73
69879;BME280;57161;43.136;24.706;2022-08-03T02:21:02;99057.53;;;20.27;62.05
69879;BME280;57161;43.136;24.706;2022-08-03T02:23:29;99090.22;;;20.40;62.54
69879;BME280;57161;43.136;24.706;2022-08-03T02:26:01;99074.28;;;20.12;62.90
69879;BME280;57161;43.136;24.706;2022-08-03T02:28:47;99099.56;;;20.31;63.01
69879;BME280;57161;43.136;24.706;2022-08-03T02:31:19;99107.75;;;20.36;62.78
69879;BME280;57161;43.136;24.706;2022-08-03T02:33:48;99104.16;;;20.36;62.58
69879;BME280;57161;43.136;24.706;2022-08-03T02:36:15;99106.72;;;20.32;62.73
69879;BME280;57161;43.136;24.706;2022-08-03T02:38:45;99098.38;;;20.34;62.73
69879;BME280;57161;43.136;24.706;2022-08-03T02:41:21;99103.31;;;20.45;62.29
69879;BME280;57161;43.136;24.706;2022-08-03T02:43:50;99110.59;;;20.60;61.76
69879;BME280;57161;43.136;24.706;2022-08-03T02:46:19;99113.94;;;20.68;61.39
69879;BME280;57161;43.136;24.706;2022-08-03T02:48:47;99116.19;;;20.70;61.20
69879;BME280;57161;43.136;24.706;2022-08-03T02:51:17;99097.16;;;20.72;61.19
69879;BME280;57161;43.136;24.706;2022-08-03T02:53:45;99101.72;;;20.89;60.87
69879;BME280;57161;43.136;24.706;2022-08-03T02:56:12;99097.00;;;20.93;60.29
69879;BME280;57161;43.136;24.706;2022-08-03T02:58:39;99102.81;;;20.95;59.90
69879;BME280;57161;43.136;24.706;2022-08-03T03:01:07;99098.59;;;20.96;59.87
69879;BME280;57161;43.136;24.706;2022-08-03T03:03:34;99109.59;;;20.90;59.74
69879;BME280;57161;43.136;24.706;2022-08-03T03:06:01;99093.59;;;20.72;60.47
69879;BME280;57161;43.136;24.706;2022-08-03T03:08:27;99106.41;;;20.61;61.08
69879;BME280;57161;43.136;24.706;2022-08-03T03:10:55;99104.41;;;20.40;62.14
69879;BME280;57161;43.136;24.706;2022-08-03T03:13:22;99111.03;;;20.33;62.53
69879;BME280;57161;43.136;24.706;2022-08-03T03:15:48;99099.31;;;20.15;62.83
69879;BME280;57161;43.136;24.706;2022-08-03T03:18:15;99114.97;;;20.16;63.27
69879;BME280;57161;43.136;24.706;2022-08-03T03:20:42;99124.09;;;20.15;63.18
69879;BME280;57161;43.136;24.706;2022-08-03T03:23:08;99131.75;;;20.12;63.65
69879;BME280;57161;43.136;24.706;2022-08-03T03:25:35;99128.53;;;20.06;63.65
69879;BME280;57161;43.136;24.706;2022-08-03T03:28:01;99125.94;;;20.10;63.78
69879;BME280;57161;43.136;24.706;2022-08-03T03:30:27;99130.00;;;20.07;63.61
69879;BME280;57161;43.136;24.706;2022-08-03T03:32:54;99135.81;;;20.09;63.61
69879;BME280;57161;43.136;24.706;2022-08-03T03:35:21;99130.88;;;20.09;63.70
69879;BME280;57161;43.136;24.706;2022-08-03T03:37:47;99126.19;;;20.14;63.54
69879;BME280;57161;43.136;24.706;2022-08-03T03:40:13;99120.88;;;20.08;63.50
69879;BME280;57161;43.136;24.706;2022-08-03T03:42:38;99125.97;;;20.22;63.25
69879;BME280;57161;43.136;24.706;2022-08-03T03:45:08;99131.97;;;20.16;63.44
69879;BME280;57161;43.136;24.706;2022-08-03T03:47:34;99126.19;;;20.14;63.40
69879;BME280;57161;43.136;24.706;2022-08-03T03:50:01;99150.03;;;20.21;63.39
69879;BME280;57161;43.136;24.706;2022-08-03T03:52:27;99153.97;;;20.27;63.26
69879;BME280;57161;43.136;24.706;2022-08-03T03:54:52;99158.06;;;20.36;62.63
69879;BME280;57161;43.136;24.706;2022-08-03T03:57:18;99150.53;;;20.29;62.77
69879;BME280;57161;43.136;24.706;2022-08-03T03:59:43;99154.91;;;20.42;62.46
69879;BME280;57161;43.136;24.706;2022-08-03T04:02:10;99161.44;;;20.44;62.02
69879;BME280;57161;43.136;24.706;2022-08-03T04:04:36;99162.41;;;20.49;61.78
69879;BME280;57161;43.136;24.706;2022-08-03T04:07:23;99162.81;;;20.55;61.67
69879;BME280;57161;43.136;24.706;2022-08-03T04:10:12;99131.31;;;20.39;61.88
69879;BME280;57161;43.136;24.706;2022-08-03T04:12:57;99148.50;;;20.64;61.49
69879;BME280;57161;43.136;24.706;2022-08-03T04:15:26;99171.44;;;20.80;61.51
69879;BME280;57161;43.136;24.706;2022-08-03T04:17:52;99166.50;;;20.81;61.21
69879;BME280;57161;43.136;24.706;2022-08-03T04:20:20;99116.28;;;20.48;61.30
69879;BME280;57161;43.136;24.706;2022-08-03T04:22:48;99169.13;;;20.88;61.40
69879;BME280;57161;43.136;24.706;2022-08-03T04:25:17;99162.69;;;20.88;61.49
69879;BME280;57161;43.136;24.706;2022-08-03T04:27:45;99172.56;;;20.98;61.21
69879;BME280;57161;43.136;24.706;2022-08-03T04:30:12;99171.06;;;20.97;61.23
69879;BME280;57161;43.136;24.706;2022-08-03T04:32:38;99178.38;;;21.01;61.38
69879;BME280;57161;43.136;24.706;2022-08-03T04:35:05;99166.63;;;20.94;61.45
69879;BME280;57161;43.136;24.706;2022-08-03T04:37:38;99182.69;;;21.02;61.71
69879;BME280;57161;43.136;24.706;2022-08-03T04:40:09;99181.56;;;21.07;61.59
69879;BME280;57161;43.136;24.706;2022-08-03T04:42:36;99183.69;;;21.18;61.30
69879;BME280;57161;43.136;24.706;2022-08-03T04:45:04;99181.97;;;21.24;61.10
69879;BME280;57161;43.136;24.706;2022-08-03T04:47:32;99178.50;;;21.26;60.62
69879;BME280;57161;43.136;24.706;2022-08-03T04:50:00;99197.75;;;21.39;60.59
69879;BME280;57161;43.136;24.706;2022-08-03T04:52:25;99185.63;;;21.50;60.22
69879;BME280;57161;43.136;24.706;2022-08-03T04:54:51;99192.59;;;21.73;59.69
69879;BME280;57161;43.136;24.706;2022-08-03T04:57:17;99196.38;;;21.89;59.24
69879;BME280;57161;43.136;24.706;2022-08-03T04:59:43;99181.69;;;21.81;58.90
69879;BME280;57161;43.136;24.706;2022-08-03T05:02:09;99201.22;;;22.12;58.17
69879;BME280;57161;43.136;24.706;2022-08-03T05:04:34;99198.78;;;22.06;58.51
69879;BME280;57161;43.136;24.706;2022-08-03T05:07:00;99195.22;;;22.06;58.93
69879;BME280;57161;43.136;24.706;2022-08-03T05:09:25;99207.50;;;22.22;58.45
69879;BME280;57161;43.136;24.706;2022-08-03T05:11:51;99204.25;;;22.28;58.60
69879;BME280;57161;43.136;24.706;2022-08-03T05:14:16;99184.41;;;22.16;58.58
69879;BME280;57161;43.136;24.706;2022-08-03T05:16:42;99206.09;;;22.35;58.50
69879;BME280;57161;43.136;24.706;2022-08-03T05:19:07;99202.53;;;22.48;58.50
69879;BME280;57161;43.136;24.706;2022-08-03T05:21:32;99205.28;;;22.60;58.03
69879;BME280;57161;43.136;24.706;2022-08-03T05:23:58;99198.53;;;22.53;58.12
69879;BME280;57161;43.136;24.706;2022-08-03T05:26:24;99206.28;;;22.64;58.40
69879;BME280;57161;43.136;24.706;2022-08-03T05:28:50;99207.72;;;22.52;58.26
69879;BME280;57161;43.136;24.706;2022-08-03T05:31:16;99212.22;;;22.43;58.59
69879;BME280;57161;43.136;24.706;2022-08-03T05:33:42;99219.53;;;22.46;58.69
69879;BME280;57161;43.136;24.706;2022-08-03T05:36:08;99224.16;;;22.28;58.64
69879;BME280;57161;43.136;24.706;2022-08-03T05:38:34;99224.81;;;22.26;58.82
69879;BME280;57161;43.136;24.706;2022-08-03T05:41:01;99225.06;;;22.30;58.76
69879;BME280;57161;43.136;24.706;2022-08-03T05:43:26;99211.56;;;22.31;58.46
69879;BME280;57161;43.136;24.706;2022-08-03T05:45:52;99217.06;;;22.40;58.75
69879;BME280;57161;43.136;24.706;2022-08-03T05:48:17;99213.56;;;22.42;58.70
69879;BME280;57161;43.136;24.706;2022-08-03T05:50:43;99227.75;;;22.54;58.44
69879;BME280;57161;43.136;24.706;2022-08-03T05:53:08;99237.59;;;22.64;58.26
69879;BME280;57161;43.136;24.706;2022-08-03T05:55:34;99224.72;;;22.63;58.16
69879;BME280;57161;43.136;24.706;2022-08-03T05:57:59;99233.28;;;22.63;58.30
69879;BME280;57161;43.136;24.706;2022-08-03T06:00:27;99238.22;;;22.63;57.87
69879;BME280;57161;43.136;24.706;2022-08-03T06:02:53;99225.75;;;22.56;57.77
69879;BME280;57161;43.136;24.706;2022-08-03T06:05:18;99255.06;;;22.84;57.42
69879;BME280;57161;43.136;24.706;2022-08-03T06:07:44;99260.06;;;22.97;57.71
69879;BME280;57161;43.136;24.706;2022-08-03T06:10:09;99261.13;;;23.04;57.28
69879;BME280;57161;43.136;24.706;2022-08-03T06:12:35;99259.97;;;22.95;56.89
69879;BME280;57161;43.136;24.706;2022-08-03T06:15:01;99249.50;;;23.00;56.66
69879;BME280;57161;43.136;24.706;2022-08-03T06:17:28;99257.25;;;23.11;57.25
69879;BME280;57161;43.136;24.706;2022-08-03T06:19:53;99260.94;;;23.27;56.74
69879;BME280;57161;43.136;24.706;2022-08-03T06:22:19;99262.94;;;23.52;56.38
69879;BME280;57161;43.136;24.706;2022-08-03T06:24:44;99264.97;;;23.77;55.33
69879;BME280;57161;43.136;24.706;2022-08-03T06:27:10;99262.28;;;23.95;54.72
69879;BME280;57161;43.136;24.706;2022-08-03T06:29:36;99268.09;;;23.97;55.03
69879;BME280;57161;43.136;24.706;2022-08-03T06:32:02;99259.47;;;23.81;55.18
69879;BME280;57161;43.136;24.706;2022-08-03T06:34:27;99243.06;;;23.82;55.14
69879;BME280;57161;43.136;24.706;2022-08-03T06:36:53;99251.97;;;24.17;54.39
69879;BME280;57161;43.136;24.706;2022-08-03T06:39:20;99268.19;;;24.42;52.95
69879;BME280;57161;43.136;24.706;2022-08-03T06:41:45;99277.59;;;24.45;53.06
69879;BME280;57161;43.136;24.706;2022-08-03T06:44:11;99273.66;;;24.68;52.26
69879;BME280;57161;43.136;24.706;2022-08-03T06:46:37;99252.59;;;24.75;51.67
69879;BME280;57161;43.136;24.706;2022-08-03T06:49:02;99271.06;;;25.03;50.91
69879;BME280;57161;43.136;24.706;2022-08-03T06:51:28;99264.69;;;25.21;50.00
69879;BME280;57161;43.136;24.706;2022-08-03T06:53:53;99271.59;;;25.47;49.42
69879;BME280;57161;43.136;24.706;2022-08-03T06:56:19;99273.59;;;25.60;49.47
69879;BME280;57161;43.136;24.706;2022-08-03T06:58:44;99262.81;;;25.75;49.49
69879;BME280;57161;43.136;24.706;2022-08-03T07:01:11;99270.09;;;25.95;49.32
69879;BME280;57161;43.136;24.706;2022-08-03T07:03:37;99260.47;;;26.05;49.69
69879;BME280;57161;43.136;24.706;2022-08-03T07:06:02;99256.22;;;26.06;49.57
69879;BME280;57161;43.136;24.706;2022-08-03T07:08:28;99250.44;;;26.21;49.03
69879;BME280;57161;43.136;24.706;2022-08-03T07:10:53;99259.59;;;26.36;49.03
69879;BME280;57161;43.136;24.706;2022-08-03T07:13:19;99263.53;;;26.62;48.09
69879;BME280;57161;43.136;24.706;2022-08-03T07:15:44;99269.72;;;26.74;48.07
69879;BME280;57161;43.136;24.706;2022-08-03T07:18:10;99265.94;;;26.87;47.82
69879;BME280;57161;43.136;24.706;2022-08-03T07:20:35;99259.69;;;26.93;47.23
69879;BME280;57161;43.136;24.706;2022-08-03T07:23:01;99263.78;;;27.06;47.02
69879;BME280;57161;43.136;24.706;2022-08-03T07:25:26;99265.72;;;27.19;47.09
69879;BME280;57161;43.136;24.706;2022-08-03T07:27:52;99270.13;;;27.42;46.64
69879;BME280;57161;43.136;24.706;2022-08-03T07:30:17;99272.16;;;27.59;46.23
69879;BME280;57161;43.136;24.706;2022-08-03T07:32:43;99266.22;;;27.73;45.73
69879;BME280;57161;43.136;24.706;2022-08-03T07:35:09;99273.88;;;27.86;45.83
69879;BME280;57161;43.136;24.706;2022-08-03T07:37:35;99271.25;;;27.94;45.77
69879;BME280;57161;43.136;24.706;2022-08-03T07:40:03;99276.75;;;28.08;45.03
69879;BME280;57161;43.136;24.706;2022-08-03T07:42:29;99276.19;;;28.14;44.13
69879;BME280;57161;43.136;24.706;2022-08-03T07:44:55;99264.63;;;28.31;43.63
69879;BME280;57161;43.136;24.706;2022-08-03T07:47:24;99265.47;;;28.36;43.24
69879;BME280;57161;43.136;24.706;2022-08-03T07:49:50;99276.75;;;28.52;43.62
69879;BME280;57161;43.136;24.706;2022-08-03T07:52:15;99272.59;;;28.57;42.94
69879;BME280;57161;43.136;24.706;2022-08-03T07:54:59;99279.88;;;28.60;43.39
69879;BME280;57161;43.136;24.706;2022-08-03T07:57:25;99270.13;;;28.69;42.68
69879;BME280;57161;43.136;24.706;2022-08-03T07:59:51;99272.63;;;28.81;42.67
69879;BME280;57161;43.136;24.706;2022-08-03T08:02:16;99271.22;;;28.82;41.91
69879;BME280;57161;43.136;24.706;2022-08-03T08:04:42;99269.09;;;28.82;42.24
69879;BME280;57161;43.136;24.706;2022-08-03T08:07:07;99272.09;;;28.86;41.94
69879;BME280;57161;43.136;24.706;2022-08-03T08:09:33;99284.66;;;28.97;41.05
69879;BME280;57161;43.136;24.706;2022-08-03T08:11:59;99288.44;;;29.04;41.07
69879;BME280;57161;43.136;24.706;2022-08-03T08:14:24;99280.53;;;29.04;41.11
69879;BME280;57161;43.136;24.706;2022-08-03T08:16:50;99281.56;;;29.15;40.66
69879;BME280;57161;43.136;24.706;2022-08-03T08:19:16;99269.50;;;29.20;40.33
69879;BME280;57161;43.136;24.706;2022-08-03T08:21:42;99282.88;;;29.36;40.68
69879;BME280;57161;43.136;24.706;2022-08-03T08:24:08;99264.09;;;29.33;39.85
69879;BME280;57161;43.136;24.706;2022-08-03T08:26:34;99286.31;;;29.54;40.85
69879;BME280;57161;43.136;24.706;2022-08-03T08:29:00;99276.25;;;29.55;39.67
69879;BME280;57161;43.136;24.706;2022-08-03T08:31:25;99275.56;;;29.56;40.57
69879;BME280;57161;43.136;24.706;2022-08-03T08:33:54;99283.63;;;29.88;40.09
69879;BME280;57161;43.136;24.706;2022-08-03T08:36:19;99278.34;;;30.06;39.85
69879;BME280;57161;43.136;24.706;2022-08-03T08:38:45;99285.00;;;30.13;38.54
69879;BME280;57161;43.136;24.706;2022-08-03T08:41:12;99287.56;;;30.01;39.42
69879;BME280;57161;43.136;24.706;2022-08-03T08:43:38;99272.19;;;29.92;39.44
69879;BME280;57161;43.136;24.706;2022-08-03T08:46:04;99278.47;;;29.84;39.30
69879;BME280;57161;43.136;24.706;2022-08-03T08:48:32;99277.94;;;29.92;39.62
69879;BME280;57161;43.136;24.706;2022-08-03T08:51:00;99284.88;;;30.09;39.54
69879;BME280;57161;43.136;24.706;2022-08-03T08:53:30;99272.34;;;30.26;39.43
69879;BME280;57161;43.136;24.706;2022-08-03T08:55:58;99281.28;;;30.38;38.71
69879;BME280;57161;43.136;24.706;2022-08-03T08:58:25;99280.03;;;30.45;38.46
69879;BME280;57161;43.136;24.706;2022-08-03T09:00:52;99275.09;;;30.50;38.71
69879;BME280;57161;43.136;24.706;2022-08-03T09:03:18;99272.53;;;30.62;38.12
69879;BME280;57161;43.136;24.706;2022-08-03T09:05:44;99262.88;;;30.52;38.01
69879;BME280;57161;43.136;24.706;2022-08-03T09:08:09;99237.41;;;30.42;38.13
69879;BME280;57161;43.136;24.706;2022-08-03T09:10:35;99267.78;;;30.45;38.62
69879;BME280;57161;43.136;24.706;2022-08-03T09:13:00;99255.16;;;30.60;38.08
69879;BME280;57161;43.136;24.706;2022-08-03T09:15:28;99265.72;;;30.80;38.18
69879;BME280;57161;43.136;24.706;2022-08-03T09:17:59;99261.44;;;30.83;38.59
69879;BME280;57161;43.136;24.706;2022-08-03T09:20:28;99249.22;;;30.84;37.71
69879;BME280;57161;43.136;24.706;2022-08-03T09:23:02;99268.34;;;31.01;37.64
69879;BME280;57161;43.136;24.706;2022-08-03T09:25:33;99255.63;;;31.15;36.86
69879;BME280;57161;43.136;24.706;2022-08-03T09:28:14;99265.38;;;31.31;36.99
69879;BME280;57161;43.136;24.706;2022-08-03T09:30:41;99257.44;;;31.32;36.67
69879;BME280;57161;43.136;24.706;2022-08-03T09:33:08;99256.72;;;31.31;36.38
69879;BME280;57161;43.136;24.706;2022-08-03T09:35:47;99263.50;;;31.46;35.84
69879;BME280;57161;43.136;24.706;2022-08-03T09:38:24;99238.94;;;31.45;35.86
69879;BME280;57161;43.136;24.706;2022-08-03T09:40:53;99239.81;;;31.54;35.29
69879;BME280;57161;43.136;24.706;2022-08-03T09:43:19;99243.47;;;31.56;36.10
69879;BME280;57161;43.136;24.706;2022-08-03T09:45:46;99249.09;;;31.48;36.05
69879;BME280;57161;43.136;24.706;2022-08-03T09:48:29;99241.13;;;31.11;35.97
69879;BME280;57161;43.136;24.706;2022-08-03T09:50:59;99232.28;;;31.02;36.20
69879;BME280;57161;43.136;24.706;2022-08-03T09:53:26;99248.63;;;31.24;36.14
69879;BME280;57161;43.136;24.706;2022-08-03T09:58:23;99238.56;;;32.05;35.70
69879;BME280;57161;43.136;24.706;2022-08-03T10:03:27;99244.09;;;31.89;34.36
69879;BME280;57161;43.136;24.706;2022-08-03T10:05:54;99237.56;;;31.88;34.84
69879;BME280;57161;43.136;24.706;2022-08-03T10:08:20;99239.78;;;31.90;34.99
69879;BME280;57161;43.136;24.706;2022-08-03T10:10:47;99218.84;;;31.89;34.96
69879;BME280;57161;43.136;24.706;2022-08-03T10:13:16;99228.63;;;32.14;34.26
69879;BME280;57161;43.136;24.706;2022-08-03T10:15:41;99224.72;;;32.40;34.71
69879;BME280;57161;43.136;24.706;2022-08-03T10:18:07;99225.03;;;32.62;33.74
69879;BME280;57161;43.136;24.706;2022-08-03T10:20:37;99230.53;;;32.42;33.99
69879;BME280;57161;43.136;24.706;2022-08-03T10:23:06;99224.63;;;32.36;33.36
69879;BME280;57161;43.136;24.706;2022-08-03T10:25:33;99217.88;;;32.69;33.65
69879;BME280;57161;43.136;24.706;2022-08-03T10:28:03;99224.84;;;33.00;32.71
69879;BME280;57161;43.136;24.706;2022-08-03T10:30:31;99216.94;;;33.05;32.98
69879;BME280;57161;43.136;24.706;2022-08-03T10:33:04;99220.41;;;32.93;32.77
69879;BME280;57161;43.136;24.706;2022-08-03T10:35:31;99211.94;;;33.11;32.44
69879;BME280;57161;43.136;24.706;2022-08-03T10:37:58;99208.34;;;33.13;32.03
69879;BME280;57161;43.136;24.706;2022-08-03T10:40:26;99208.53;;;33.29;32.46
69879;BME280;57161;43.136;24.706;2022-08-03T10:42:54;99205.09;;;33.43;31.73
69879;BME280;57161;43.136;24.706;2022-08-03T10:45:23;99200.94;;;33.62;31.22
69879;BME280;57161;43.136;24.706;2022-08-03T10:47:50;99212.69;;;33.83;31.21
69879;BME280;57161;43.136;24.706;2022-08-03T10:50:17;99195.84;;;33.61;31.66
69879;BME280;57161;43.136;24.706;2022-08-03T10:53:00;99204.53;;;33.59;31.34
69879;BME280;57161;43.136;24.706;2022-08-03T11:03:28;99191.28;;;32.79;32.84
69879;BME280;57161;43.136;24.706;2022-08-03T11:06:13;99190.63;;;32.84;32.81
69879;BME280;57161;43.136;24.706;2022-08-03T11:08:41;99180.19;;;32.61;32.49
69879;BME280;57161;43.136;24.706;2022-08-03T11:13:55;99171.91;;;32.88;33.00
69879;BME280;57161;43.136;24.706;2022-08-03T11:16:22;99169.72;;;32.88;32.26
69879;BME280;57161;43.136;24.706;2022-08-03T11:18:58;99173.78;;;32.69;31.66
69879;BME280;57161;43.136;24.706;2022-08-03T11:35:12;99156.03;;;32.38;31.04
69879;BME280;57161;43.136;24.706;2022-08-03T11:40:42;99145.38;;;32.53;31.01
69879;BME280;57161;43.136;24.706;2022-08-03T11:48:26;99117.56;;;32.82;29.82
69879;BME280;57161;43.136;24.706;2022-08-03T11:50:52;99109.16;;;33.06;29.87
69879;BME280;57161;43.136;24.706;2022-08-03T11:53:17;99120.53;;;33.61;29.22
69879;BME280;57161;43.136;24.706;2022-08-03T11:55:44;99123.72;;;33.95;28.59
69879;BME280;57161;43.136;24.706;2022-08-03T11:58:21;99118.84;;;34.28;29.27
69879;BME280;57161;43.136;24.706;2022-08-03T12:00:47;99115.41;;;34.63;28.84
69879;BME280;57161;43.136;24.706;2022-08-03T12:03:15;99122.81;;;34.88;28.94
69879;BME280;57161;43.136;24.706;2022-08-03T12:05:59;99103.75;;;34.48;28.77
69879;BME280;57161;43.136;24.706;2022-08-03T12:08:33;99100.72;;;34.24;29.37
69879;BME280;57161;43.136;24.706;2022-08-03T12:11:01;99107.03;;;33.90;29.79
69879;BME280;57161;43.136;24.706;2022-08-03T12:13:57;99111.69;;;33.38;30.26
69879;BME280;57161;43.136;24.706;2022-08-03T12:16:24;99104.75;;;33.01;30.36
69879;BME280;57161;43.136;24.706;2022-08-03T12:19:00;99107.69;;;33.03;30.59
69879;BME280;57161;43.136;24.706;2022-08-03T12:21:27;99097.63;;;33.10;30.51
69879;BME280;57161;43.136;24.706;2022-08-03T12:23:58;99104.91;;;33.18;30.53
69879;BME280;57161;43.136;24.706;2022-08-03T12:26:25;99107.75;;;33.11;30.76
69879;BME280;57161;43.136;24.706;2022-08-03T12:28:51;99097.50;;;32.98;30.58
69879;BME280;57161;43.136;24.706;2022-08-03T12:31:17;99098.25;;;33.03;30.38
69879;BME280;57161;43.136;24.706;2022-08-03T12:34:09;99098.31;;;33.05;30.88
69879;BME280;57161;43.136;24.706;2022-08-03T12:36:35;99094.53;;;32.90;30.45
69879;BME280;57161;43.136;24.706;2022-08-03T12:39:07;99080.63;;;32.78;30.33
69879;BME280;57161;43.136;24.706;2022-08-03T12:41:35;99091.81;;;33.06;29.48
69879;BME280;57161;43.136;24.706;2022-08-03T12:44:03;99081.81;;;33.22;29.55
69879;BME280;57161;43.136;24.706;2022-08-03T12:46:37;99088.41;;;33.32;29.41
69879;BME280;57161;43.136;24.706;2022-08-03T12:49:08;99098.47;;;33.21;29.34
69879;BME280;57161;43.136;24.706;2022-08-03T12:51:56;99081.81;;;33.22;29.47
69879;BME280;57161;43.136;24.706;2022-08-03T12:54:27;99082.03;;;33.44;29.43
69879;BME280;57161;43.136;24.706;2022-08-03T12:59:30;99069.47;;;33.17;29.36
69879;BME280;57161;43.136;24.706;2022-08-03T13:01:56;99088.84;;;33.02;29.35
69879;BME280;57161;43.136;24.706;2022-08-03T13:04:27;99078.84;;;33.13;30.15
69879;BME280;57161;43.136;24.706;2022-08-03T13:06:59;99081.41;;;33.54;30.36
69879;BME280;57161;43.136;24.706;2022-08-03T13:09:25;99076.69;;;34.01;28.90
69879;BME280;57161;43.136;24.706;2022-08-03T13:12:07;99071.69;;;34.16;28.12
69879;BME280;57161;43.136;24.706;2022-08-03T13:14:33;99060.53;;;33.71;28.24
69879;BME280;57161;43.136;24.706;2022-08-03T13:16:59;99058.50;;;33.90;28.63
69879;BME280;57161;43.136;24.706;2022-08-03T13:19:24;99065.59;;;33.71;28.24
69879;BME280;57161;43.136;24.706;2022-08-03T13:21:50;99074.22;;;33.65;28.86
69879;BME280;57161;43.136;24.706;2022-08-03T13:24:15;99069.84;;;33.60;28.70
69879;BME280;57161;43.136;24.706;2022-08-03T13:26:41;99062.34;;;33.30;29.11
69879;BME280;57161;43.136;24.706;2022-08-03T13:29:06;99067.91;;;33.04;29.24
69879;BME280;57161;43.136;24.706;2022-08-03T13:31:32;99070.00;;;32.97;29.14
69879;BME280;57161;43.136;24.706;2022-08-03T13:33:57;99057.72;;;32.99;29.00
69879;BME280;57161;43.136;24.706;2022-08-03T13:36:23;99052.00;;;33.05;29.18
69879;BME280;57161;43.136;24.706;2022-08-03T13:38:49;99056.38;;;33.10;29.24
69879;BME280;57161;43.136;24.706;2022-08-03T13:41:14;99054.25;;;33.14;29.05
69879;BME280;57161;43.136;24.706;2022-08-03T13:43:40;99058.50;;;33.05;29.03
69879;BME280;57161;43.136;24.706;2022-08-03T13:46:05;99025.88;;;32.99;29.12